Time;durP1;ratioP1;P1;durP2;ratioP2;P2;SDS_P1;SDS_P2;PMS_P1;PMS_P2;Temp;Humidity;BMP_temperature;BMP_pressure;BME280_temperature;BME280_humidity;BME280_pressure;Samples;Min_cycle;Max_cycle;Signal;HPM_P1;HPM_P2
2022/10/20 00:01:02;;;;;;;14.10;4.63;;;;;;;17.12;85.84;99698.69;5071794;28;20041;-71
2022/10/20 00:03:28;;;;;;;12.00;5.05;;;;;;;17.10;86.45;99698.22;5066576;28;20022;-71
2022/10/20 00:05:54;;;;;;;10.18;4.85;;;;;;;17.11;86.27;99694.31;5046325;28;20507;-71
2022/10/20 00:08:19;;;;;;;7.30;4.43;;;;;;;17.12;86.17;99701.47;5066586;28;20044;-72
2022/10/20 00:10:53;;;;;;;8.52;4.13;;;;;;;17.16;86.61;99701.63;5050120;28;20067;-71
2022/10/20 00:13:28;;;;;;;9.02;3.67;;;;;;;17.11;85.95;99688.78;5074065;28;20029;-73
2022/10/20 00:15:55;;;;;;;11.25;5.10;;;;;;;17.14;86.04;99693.66;5058945;28;20068;-73
2022/10/20 00:18:22;;;;;;;11.07;4.38;;;;;;;17.15;86.54;99703.56;5050063;28;20037;-73
2022/10/20 00:20:48;;;;;;;12.60;6.10;;;;;;;17.12;86.89;99695.13;5070252;28;20599;-73
2022/10/20 00:23:14;;;;;;;9.73;4.75;;;;;;;17.09;86.61;99685.53;5058876;28;20104;-73
2022/10/20 00:25:42;;;;;;;5.65;3.75;;;;;;;17.10;86.79;99689.94;5056444;28;20419;-73
2022/10/20 00:28:08;;;;;;;7.75;4.22;;;;;;;17.14;86.11;99692.84;5058772;28;20021;-72
2022/10/20 00:30:34;;;;;;;19.02;6.22;;;;;;;17.09;86.83;99691.06;5063676;28;20035;-71
2022/10/20 00:33:01;;;;;;;13.63;5.82;;;;;;;17.08;87.02;99697.72;5060897;28;20364;-71
2022/10/20 00:35:27;;;;;;;10.82;5.05;;;;;;;17.07;86.87;99698.88;5055256;28;20024;-73
2022/10/20 00:37:53;;;;;;;8.65;4.45;;;;;;;17.03;86.91;99697.91;5066402;28;20043;-71
2022/10/20 00:40:19;;;;;;;11.05;5.00;;;;;;;17.08;86.65;99700.50;5075096;28;20100;-71
2022/10/20 00:42:47;;;;;;;12.43;5.40;;;;;;;16.93;87.02;99682.47;5068349;28;20106;-70
2022/10/20 00:45:18;;;;;;;17.88;5.50;;;;;;;16.99;87.17;99691.41;5080468;28;20025;-73
2022/10/20 00:48:14;;;;;;;11.63;5.55;;;;;;;17.01;87.07;99689.13;5082922;28;20021;-72
2022/10/20 00:50:51;;;;;;;10.65;4.93;;;;;;;17.03;87.03;99686.88;5089434;28;20058;-71
2022/10/20 00:53:17;;;;;;;4.28;3.42;;;;;;;17.03;86.74;99703.44;5067642;28;20051;-74
2022/10/20 00:55:55;;;;;;;14.75;4.57;;;;;;;16.95;87.45;99682.94;5081048;28;20386;-72
2022/10/20 00:58:23;;;;;;;10.02;4.53;;;;;;;16.90;87.09;99661.84;5060095;28;20037;-73
2022/10/20 01:00:56;;;;;;;11.05;4.88;;;;;;;16.96;86.99;99669.97;5095362;28;20021;-72
2022/10/20 01:03:36;;;;;;;7.53;3.83;;;;;;;17.08;86.76;99683.91;5070425;28;20382;-74
2022/10/20 01:06:08;;;;;;;8.13;4.25;;;;;;;16.97;86.83;99658.59;5075303;28;20032;-71
2022/10/20 01:08:34;;;;;;;9.52;4.63;;;;;;;17.08;86.49;99662.66;5072692;28;20017;-72
2022/10/20 01:11:24;;;;;;;12.07;5.25;;;;;;;17.21;86.74;99671.84;5058026;28;20035;-74
2022/10/20 01:14:32;;;;;;;;;;;;;;;;;;;;;
2022/10/20 01:17:11;;;;;;;5.22;3.17;;;;;;;17.22;85.90;99648.63;5068723;28;20419;-70
2022/10/20 01:19:58;;;;;;;7.50;4.57;;;;;;;17.27;86.15;99665.03;5078221;28;20031;-72
2022/10/20 01:22:53;;;;;;;7.82;4.22;;;;;;;17.21;85.68;99671.06;5080717;28;20033;-72
2022/10/20 01:25:24;;;;;;;3.80;3.10;;;;;;;17.18;85.85;99667.00;5023810;28;20066;-72
2022/10/20 01:30:22;;;;;;;10.95;5.22;;;;;;;17.15;86.37;99684.22;5026740;23;20099;-71
2022/10/20 01:33:23;;;;;;;8.95;4.38;;;;;;;17.11;86.89;99694.31;5036826;28;20095;-71
2022/10/20 01:36:11;;;;;;;12.95;4.70;;;;;;;17.01;87.32;99694.66;4996446;28;20130;-72
2022/10/20 01:38:49;;;;;;;10.60;4.63;;;;;;;16.92;87.37;99681.69;5053421;28;20032;-71
2022/10/20 01:41:25;;;;;;;8.10;4.03;;;;;;;16.90;87.19;99675.66;5054204;28;20032;-70
2022/10/20 01:43:52;;;;;;;13.15;4.90;;;;;;;16.85;87.36;99681.34;5049401;28;20032;-70
2022/10/20 01:46:23;;;;;;;10.25;4.60;;;;;;;16.76;87.79;99674.97;5024926;28;20297;-69
2022/10/20 01:48:48;;;;;;;17.77;6.38;;;;;;;16.75;88.79;99693.50;5048144;28;20096;-70
2022/10/20 01:51:14;;;;;;;12.18;4.25;;;;;;;16.71;88.84;99686.22;5035348;28;20087;-70
2022/10/20 01:53:39;;;;;;;8.10;4.30;;;;;;;16.66;89.31;99678.91;5049796;28;20071;-70
2022/10/20 01:56:06;;;;;;;8.88;4.05;;;;;;;16.64;89.36;99674.84;5047364;28;20021;-71
2022/10/20 01:59:05;;;;;;;7.95;4.97;;;;;;;16.62;89.51;99666.88;5054822;28;20119;-72
2022/10/20 02:01:56;;;;;;;7.60;3.63;;;;;;;16.62;89.37;99666.06;5049938;28;20112;-73
2022/10/20 02:04:31;;;;;;;12.90;4.65;;;;;;;16.60;89.75;99669.13;5051081;28;20052;-72
2022/10/20 02:07:04;;;;;;;9.18;4.38;;;;;;;16.60;89.52;99668.34;5027683;28;20021;-73
2022/10/20 02:09:40;;;;;;;20.95;5.38;;;;;;;16.54;89.36;99662.16;5034605;28;20040;-73
2022/10/20 02:12:19;;;;;;;12.07;3.95;;;;;;;16.56;89.76;99665.44;5035614;28;20025;-73
2022/10/20 02:14:46;;;;;;;7.18;4.20;;;;;;;16.52;89.64;99662.50;5048236;28;20032;-72
2022/10/20 02:17:15;;;;;;;6.65;3.58;;;;;;;16.56;89.71;99663.47;5040647;28;20467;-73
2022/10/20 02:19:43;;;;;;;16.15;4.47;;;;;;;16.53;89.24;99664.13;5039134;28;20097;-73
2022/10/20 02:22:12;;;;;;;9.93;3.97;;;;;;;16.49;89.70;99659.59;5042762;28;20025;-73
2022/10/20 02:24:40;;;;;;;15.70;4.10;;;;;;;16.48;89.34;99658.75;5044641;28;20102;-72
2022/10/20 02:27:26;;;;;;;10.23;3.63;;;;;;;16.40;89.58;99648.53;5038938;28;20025;-73
2022/10/20 02:29:59;;;;;;;11.27;4.28;;;;;;;16.35;89.90;99645.94;5055924;28;20045;-73
2022/10/20 02:32:26;;;;;;;13.23;4.47;;;;;;;16.26;89.77;99636.84;5044400;28;20018;-74
2022/10/20 02:34:51;;;;;;;9.63;3.83;;;;;;;16.08;90.08;99631.31;5028372;28;20024;-74
2022/10/20 02:37:17;;;;;;;13.45;3.63;;;;;;;16.00;89.86;99629.34;5056325;28;20104;-72
2022/10/20 02:39:43;;;;;;;12.27;3.35;;;;;;;15.96;90.33;99633.88;5053937;28;20033;-74
2022/10/20 02:42:08;;;;;;;11.07;3.38;;;;;;;15.94;90.61;99630.63;5034019;28;20021;-74
2022/10/20 02:44:34;;;;;;;16.77;3.90;;;;;;;15.90;90.58;99630.44;5055140;28;20037;-72
2022/10/20 02:46:59;;;;;;;17.08;3.55;;;;;;;15.82;90.20;99618.28;5041468;28;20028;-74
2022/10/20 02:49:26;;;;;;;11.57;3.17;;;;;;;15.81;89.98;99633.22;5009617;28;20029;-74
2022/10/20 02:51:51;;;;;;;10.05;3.58;;;;;;;15.74;90.20;99616.31;5048438;28;20013;-73
2022/10/20 02:54:17;;;;;;;10.57;2.97;;;;;;;15.70;89.91;99615.31;5019020;28;20040;-72
2022/10/20 02:56:42;;;;;;;5.53;2.45;;;;;;;15.73;89.90;99609.16;5022737;28;20044;-71
2022/10/20 02:59:12;;;;;;;3.97;1.90;;;;;;;15.72;90.28;99599.25;5056555;28;20094;-72
2022/10/20 03:01:39;;;;;;;2.83;1.33;;;;;;;15.64;89.83;99570.56;5029360;28;20032;-71
2022/10/20 03:04:04;;;;;;;1.80;1.38;;;;;;;15.61;89.81;99562.09;5057719;28;20048;-70
2022/10/20 03:06:30;;;;;;;2.92;1.33;;;;;;;15.66;90.00;99564.72;5047524;28;20059;-72
2022/10/20 03:08:58;;;;;;;5.40;2.05;;;;;;;15.56;89.93;99565.03;5058779;28;20107;-71
2022/10/20 03:11:26;;;;;;;4.55;1.80;;;;;;;15.58;89.73;99569.09;5023876;28;20017;-71
2022/10/20 03:13:52;;;;;;;8.40;2.30;;;;;;;15.54;89.75;99574.41;5052265;28;20529;-71
2022/10/20 03:16:20;;;;;;;5.13;2.00;;;;;;;15.56;89.81;99581.56;5053654;28;20032;-70
2022/10/20 03:18:45;;;;;;;9.95;2.50;;;;;;;15.45;89.68;99568.06;5019161;28;20401;-71
2022/10/20 03:21:11;;;;;;;9.02;2.85;;;;;;;15.56;89.54;99576.84;5058501;28;20037;-72
2022/10/20 03:23:39;;;;;;;10.18;2.72;;;;;;;15.59;89.07;99597.44;5034333;28;20110;-71
2022/10/20 03:26:16;;;;;;;9.50;2.60;;;;;;;15.58;89.53;99591.13;5022832;28;20131;-72
2022/10/20 03:28:44;;;;;;;4.60;2.05;;;;;;;15.49;89.09;99566.31;5040530;28;20149;-73
2022/10/20 03:31:09;;;;;;;5.38;1.65;;;;;;;15.57;88.96;99572.16;5049767;28;20037;-72
2022/10/20 03:33:35;;;;;;;3.63;1.60;;;;;;;15.58;89.15;99579.28;5040512;28;20047;-73
2022/10/20 03:36:01;;;;;;;6.20;1.60;;;;;;;15.51;89.11;99580.56;5049072;28;20063;-71
2022/10/20 03:38:26;;;;;;;3.83;1.50;;;;;;;15.56;88.92;99576.03;5034752;28;20025;-71
2022/10/20 03:40:52;;;;;;;3.35;1.45;;;;;;;15.61;88.62;99589.66;5050321;28;20029;-71
2022/10/20 03:43:17;;;;;;;2.90;1.40;;;;;;;15.57;88.58;99588.69;5035807;28;20037;-70
2022/10/20 03:45:43;;;;;;;2.13;1.05;;;;;;;15.53;88.52;99583.00;5054140;28;20082;-70
2022/10/20 03:48:33;;;;;;;;;;;;;;;;;;;;;
2022/10/20 03:51:08;;;;;;;2.80;1.60;;;;;;;15.40;89.03;99564.66;5054169;28;20119;-72
2022/10/20 03:53:33;;;;;;;2.35;1.48;;;;;;;15.44;88.84;99574.72;5043220;28;20036;-73
2022/10/20 03:56:03;;;;;;;2.72;1.45;;;;;;;15.43;88.63;99569.53;5030490;28;20110;-72
2022/10/20 03:58:29;;;;;;;3.47;1.70;;;;;;;15.54;88.97;99582.69;5053727;28;20497;-73
2022/10/20 04:00:54;;;;;;;5.85;2.00;;;;;;;15.52;88.42;99576.69;5047983;28;20037;-71
2022/10/20 04:03:20;;;;;;;4.00;1.80;;;;;;;15.54;88.88;99579.91;5062559;28;20954;-73
2022/10/20 04:05:45;;;;;;;4.57;1.77;;;;;;;15.50;88.36;99567.91;5021130;28;20058;-72
2022/10/20 04:08:26;;;;;;;2.38;1.30;;;;;;;15.57;88.49;99583.19;5042126;28;20017;-73
2022/10/20 04:10:51;;;;;;;2.08;1.27;;;;;;;15.51;88.55;99564.03;5041535;28;20056;-73
2022/10/20 04:13:17;;;;;;;1.95;1.00;;;;;;;15.55;88.56;99575.25;5040652;28;20048;-72
2022/10/20 04:15:42;;;;;;;3.38;1.40;;;;;;;15.58;88.37;99580.09;5062794;28;20063;-74
2022/10/20 04:18:08;;;;;;;5.15;2.20;;;;;;;15.60;88.44;99574.28;5057116;28;20088;-72
2022/10/20 04:20:33;;;;;;;4.95;2.67;;;;;;;15.51;88.34;99569.53;5058094;28;20033;-73
2022/10/20 04:22:59;;;;;;;5.25;2.17;;;;;;;15.58;88.32;99579.28;5049274;28;20021;-72
2022/10/20 04:25:29;;;;;;;6.57;2.50;;;;;;;15.51;88.63;99586.06;5040477;28;20049;-73
2022/10/20 04:27:58;;;;;;;9.77;2.90;;;;;;;15.54;88.70;99585.44;5039122;28;20025;-74
2022/10/20 04:30:24;;;;;;;12.50;3.67;;;;;;;15.41;88.72;99572.59;5036659;28;20064;-72
2022/10/20 04:32:53;;;;;;;12.23;2.53;;;;;;;15.43;88.81;99578.59;5009111;28;20023;-72
2022/10/20 04:35:21;;;;;;;5.70;2.78;;;;;;;15.41;88.99;99575.34;5013863;28;20116;-75
2022/10/20 04:37:46;;;;;;;4.10;1.83;;;;;;;15.50;89.18;99594.66;5010745;28;20031;-74
2022/10/20 04:40:16;;;;;;;5.35;2.28;;;;;;;15.37;89.27;99585.38;4992237;28;20069;-74
2022/10/20 04:42:42;;;;;;;3.03;1.77;;;;;;;15.48;89.14;99602.44;5019989;28;20472;-73
2022/10/20 04:45:08;;;;;;;3.95;1.60;;;;;;;15.44;89.51;99606.97;5017737;28;20025;-72
2022/10/20 04:47:33;;;;;;;7.18;3.08;;;;;;;15.40;89.45;99609.53;5014264;28;20030;-72
2022/10/20 04:49:58;;;;;;;11.35;3.85;;;;;;;15.37;89.77;99612.91;5015159;28;20363;-73
2022/10/20 04:52:24;;;;;;;10.88;3.83;;;;;;;15.33;90.58;99622.94;5017474;28;20030;-73
2022/10/20 04:54:49;;;;;;;11.20;3.85;;;;;;;15.23;91.24;99606.69;5019747;28;20030;-73
2022/10/20 04:57:17;;;;;;;9.13;3.35;;;;;;;15.21;91.57;99608.97;5016784;28;20064;-73
2022/10/20 04:59:43;;;;;;;5.00;2.30;;;;;;;15.19;91.91;99614.81;5020863;28;20033;-74
2022/10/20 05:02:10;;;;;;;3.78;2.00;;;;;;;15.14;91.78;99599.22;5017551;28;20090;-75
2022/10/20 05:04:35;;;;;;;8.88;2.58;;;;;;;15.16;92.17;99593.41;5013453;28;20038;-71
2022/10/20 05:07:01;;;;;;;7.22;3.13;;;;;;;15.17;92.33;99601.34;5012726;28;20511;-72
2022/10/20 05:09:27;;;;;;;9.48;3.53;;;;;;;15.15;92.55;99611.03;5001727;28;20059;-72
2022/10/20 05:11:52;;;;;;;10.60;3.20;;;;;;;15.12;92.43;99619.94;5019597;28;20494;-72
2022/10/20 05:14:18;;;;;;;9.45;3.67;;;;;;;15.10;93.18;99625.78;5007693;28;20117;-72
2022/10/20 05:16:44;;;;;;;11.75;3.72;;;;;;;15.08;93.47;99630.75;5013150;28;20068;-73
2022/10/20 05:19:10;;;;;;;15.90;4.18;;;;;;;15.00;94.08;99615.81;5016053;28;20026;-73
2022/10/20 05:21:36;;;;;;;8.65;3.25;;;;;;;15.00;94.43;99612.28;5012421;28;20440;-73
2022/10/20 05:24:03;;;;;;;8.93;3.63;;;;;;;14.99;94.45;99618.91;5011340;28;20055;-73
2022/10/20 05:26:33;;;;;;;15.88;3.65;;;;;;;14.94;94.72;99613.53;5008811;28;20057;-74
2022/10/20 05:29:00;;;;;;;13.65;3.50;;;;;;;14.88;94.92;99606.53;5025094;28;20083;-73
2022/10/20 05:31:25;;;;;;;11.57;3.58;;;;;;;14.79;95.48;99604.53;5013052;28;20199;-72
2022/10/20 05:33:53;;;;;;;23.02;4.65;;;;;;;14.80;95.27;99605.34;5018469;28;20080;-74
2022/10/20 05:36:21;;;;;;;18.80;3.83;;;;;;;14.75;95.86;99606.28;5050018;28;20045;-71
2022/10/20 05:38:47;;;;;;;14.32;3.08;;;;;;;14.68;96.34;99608.66;5045840;28;20017;-72
2022/10/20 05:41:15;;;;;;;11.02;3.42;;;;;;;14.66;96.36;99610.94;5029408;28;20116;-73
2022/10/20 05:43:41;;;;;;;13.40;3.35;;;;;;;14.62;96.48;99604.44;5048851;28;20025;-72
2022/10/20 05:46:08;;;;;;;18.45;3.92;;;;;;;14.58;96.70;99608.91;5047324;28;20041;-73
2022/10/20 05:48:35;;;;;;;15.07;4.10;;;;;;;14.44;96.79;99587.78;5036146;28;20452;-71
2022/10/20 05:51:12;;;;;;;10.52;3.22;;;;;;;14.43;96.52;99586.13;5023828;28;20029;-74
2022/10/20 05:53:41;;;;;;;16.00;3.30;;;;;;;14.41;96.42;99582.91;5028193;28;20674;-72
2022/10/20 05:56:16;;;;;;;16.33;3.67;;;;;;;14.32;97.06;99569.06;5023103;28;20017;-73
2022/10/20 05:59:08;;;;;;;15.50;3.25;;;;;;;14.39;97.07;99574.13;5028678;28;20066;-72
2022/10/20 06:01:49;;;;;;;9.15;2.78;;;;;;;14.42;97.35;99578.19;5032620;28;20045;-71
2022/10/20 06:04:18;;;;;;;14.27;2.75;;;;;;;14.42;96.79;99580.94;5052094;28;20021;-72
2022/10/20 06:06:43;;;;;;;10.50;3.00;;;;;;;14.34;96.88;99566.00;5059112;28;20033;-72
2022/10/20 06:09:09;;;;;;;15.27;3.30;;;;;;;14.40;97.25;99567.50;5056694;28;20029;-73
2022/10/20 06:11:35;;;;;;;10.90;3.60;;;;;;;14.26;97.32;99550.25;5058648;28;20033;-72
2022/10/20 06:14:01;;;;;;;10.82;2.83;;;;;;;14.31;97.22;99555.63;5051732;28;20044;-71
2022/10/20 06:16:28;;;;;;;20.92;4.13;;;;;;;14.29;96.62;99558.69;5028348;28;20601;-70
2022/10/20 06:18:55;;;;;;;15.50;2.92;;;;;;;14.24;96.97;99556.06;5056963;28;20021;-72
2022/10/20 06:21:24;;;;;;;12.02;3.10;;;;;;;14.19;97.02;99555.38;5051906;28;20033;-72
2022/10/20 06:23:53;;;;;;;11.93;3.10;;;;;;;14.16;96.65;99558.75;5052511;28;20029;-73
2022/10/20 06:26:23;;;;;;;13.75;2.97;;;;;;;14.19;96.18;99564.41;5044263;28;20041;-72
2022/10/20 06:28:53;;;;;;;8.55;2.28;;;;;;;14.06;95.93;99537.78;5038820;28;20071;-73
2022/10/20 06:31:22;;;;;;;11.57;2.75;;;;;;;14.16;95.46;99564.25;5037451;28;20065;-72
2022/10/20 06:34:17;;;;;;;14.18;3.20;;;;;;;14.01;95.34;99546.19;5029782;28;20032;-71
2022/10/20 06:36:43;;;;;;;9.25;2.80;;;;;;;13.99;95.16;99546.50;5059249;28;20040;-71
2022/10/20 06:39:17;;;;;;;13.07;2.63;;;;;;;14.09;95.23;99556.41;5061157;28;20035;-73
2022/10/20 06:41:47;;;;;;;11.63;1.70;;;;;;;14.07;95.33;99550.44;5037716;28;20032;-72
2022/10/20 06:44:12;;;;;;;9.05;1.63;;;;;;;14.04;95.22;99549.09;5052034;28;20084;-73
2022/10/20 06:46:38;;;;;;;5.07;1.45;;;;;;;14.10;95.33;99553.34;5019895;28;20041;-73
2022/10/20 06:49:05;;;;;;;7.43;2.55;;;;;;;14.12;94.94;99548.38;5052599;28;20029;-72
2022/10/20 06:51:31;;;;;;;6.75;1.58;;;;;;;14.23;94.98;99564.63;5042825;28;20036;-72
2022/10/20 06:53:58;;;;;;;3.00;1.30;;;;;;;14.26;94.80;99561.25;5036788;28;20482;-72
2022/10/20 06:56:26;;;;;;;3.03;1.10;;;;;;;14.25;94.38;99554.13;5034365;28;20060;-71
2022/10/20 06:58:53;;;;;;;2.00;0.80;;;;;;;14.30;94.71;99548.50;5034964;28;20410;-75
2022/10/20 07:01:26;;;;;;;4.55;0.85;;;;;;;14.32;94.15;99551.75;5042469;28;20036;-79
2022/10/20 07:03:54;;;;;;;1.60;0.68;;;;;;;14.32;94.42;99551.75;5032080;28;20045;-74
2022/10/20 07:06:32;;;;;;;1.33;0.55;;;;;;;14.35;94.01;99545.63;5050860;28;20036;-73
2022/10/20 07:08:58;;;;;;;0.90;0.50;;;;;;;14.28;94.03;99528.75;5041837;28;20105;-73
2022/10/20 07:11:27;;;;;;;1.20;0.50;;;;;;;14.38;94.27;99545.00;5023412;28;20075;-73
2022/10/20 07:13:52;;;;;;;2.15;0.40;;;;;;;14.45;94.32;99541.81;5049182;28;20036;-72
2022/10/20 07:16:21;;;;;;;0.82;0.30;;;;;;;14.51;94.08;99542.50;5016113;28;20037;-73
2022/10/20 07:18:47;;;;;;;0.70;0.38;;;;;;;14.51;94.25;99534.25;5051806;28;20029;-73
2022/10/20 07:21:18;;;;;;;0.50;0.40;;;;;;;14.63;93.87;99534.50;5041349;28;20049;-73
2022/10/20 07:23:44;;;;;;;1.02;0.60;;;;;;;14.69;93.58;99533.25;5058312;28;20032;-73
2022/10/20 07:26:16;;;;;;;0.65;0.43;;;;;;;14.73;93.07;99534.22;5044548;28;20111;-73
2022/10/20 07:28:44;;;;;;;1.60;0.85;;;;;;;14.78;92.96;99530.56;5062999;28;20045;-72
2022/10/20 07:31:16;;;;;;;1.08;0.45;;;;;;;14.86;92.92;99529.75;5025814;28;20040;-74
2022/10/20 07:33:41;;;;;;;0.55;0.52;;;;;;;14.97;92.26;99533.88;5060949;28;20033;-74
2022/10/20 07:36:28;;;;;;;0.50;0.40;;;;;;;15.05;92.14;99524.00;5045230;28;20029;-72
2022/10/20 07:38:56;;;;;;;1.08;0.52;;;;;;;15.13;91.95;99515.00;5059096;28;20117;-72
2022/10/20 07:41:22;;;;;;;0.63;0.40;;;;;;;15.19;91.05;99521.97;5043535;28;20056;-73
2022/10/20 07:43:47;;;;;;;0.57;0.40;;;;;;;15.22;91.37;99512.25;5025288;28;20028;-73
2022/10/20 07:46:13;;;;;;;2.35;0.40;;;;;;;15.28;90.77;99513.72;5061478;28;20501;-73
2022/10/20 07:48:40;;;;;;;0.73;0.40;;;;;;;15.33;90.89;99512.78;5041762;28;20112;-73
2022/10/20 07:51:14;;;;;;;0.85;0.30;;;;;;;15.42;90.24;99516.38;5041640;28;20104;-73
2022/10/20 07:53:39;;;;;;;0.32;0.30;;;;;;;15.47;90.07;99507.94;5055462;28;20461;-73
2022/10/20 07:56:05;;;;;;;0.70;0.32;;;;;;;15.54;89.98;99508.28;5033336;28;20021;-73
2022/10/20 07:58:30;;;;;;;2.17;0.40;;;;;;;15.63;89.52;99518.53;5027172;28;20025;-73
2022/10/20 08:00:56;;;;;;;0.60;0.22;;;;;;;15.58;88.84;99502.13;5043332;28;20036;-73
2022/10/20 08:03:21;;;;;;;1.42;0.60;;;;;;;15.63;88.54;99513.81;5048367;28;20443;-73
2022/10/20 08:05:58;;;;;;;0.52;0.40;;;;;;;15.54;88.93;99508.28;5060022;28;20360;-73
2022/10/20 08:08:23;;;;;;;0.43;0.20;;;;;;;15.40;88.87;99501.28;5047376;28;20088;-74
2022/10/20 08:10:49;;;;;;;1.30;0.63;;;;;;;15.46;89.00;99522.88;5040602;28;20137;-72
2022/10/20 08:13:14;;;;;;;0.75;0.40;;;;;;;15.36;88.93;99521.22;5055067;28;20013;-72
2022/10/20 08:15:39;;;;;;;0.82;0.50;;;;;;;15.37;89.07;99524.78;5043655;28;20033;-73
2022/10/20 08:18:05;;;;;;;0.43;0.32;;;;;;;15.34;88.80;99519.91;5026355;28;20020;-74
2022/10/20 08:20:31;;;;;;;0.70;0.32;;;;;;;15.33;88.87;99507.25;5041511;28;20049;-73
2022/10/20 08:22:57;;;;;;;0.52;0.30;;;;;;;15.29;88.62;99507.09;5037975;28;20410;-73
2022/10/20 08:25:23;;;;;;;4.68;0.60;;;;;;;15.26;88.32;99491.22;5061551;28;20037;-73
2022/10/20 08:27:54;;;;;;;1.58;0.75;;;;;;;15.29;88.16;99500.78;5069819;28;20036;-74
2022/10/20 08:30:19;;;;;;;2.28;0.80;;;;;;;15.28;87.95;99496.41;5027056;28;20137;-72
2022/10/20 08:32:51;;;;;;;1.73;0.90;;;;;;;15.27;87.98;99497.53;5017502;28;20061;-73
2022/10/20 08:35:17;;;;;;;2.08;0.80;;;;;;;15.25;87.78;99503.34;5018159;28;20030;-72
2022/10/20 08:37:42;;;;;;;1.48;0.77;;;;;;;15.27;87.88;99492.03;5016018;28;20036;-72
2022/10/20 08:40:15;;;;;;;2.78;0.85;;;;;;;15.22;87.21;99489.44;5019705;28;20049;-71
2022/10/20 08:42:44;;;;;;;2.70;0.90;;;;;;;15.21;87.23;99485.03;5020372;28;20014;-74
2022/10/20 08:45:21;;;;;;;3.75;1.75;;;;;;;15.22;87.60;99497.69;5001525;28;20033;-73
2022/10/20 08:47:51;;;;;;;2.22;1.30;;;;;;;15.27;87.18;99497.53;5013209;28;20081;-74
2022/10/20 08:50:18;;;;;;;4.85;1.13;;;;;;;15.31;87.02;99495.75;5010040;28;20468;-73
2022/10/20 08:52:49;;;;;;;2.30;1.20;;;;;;;15.25;86.72;99505.31;5021989;28;20021;-73
2022/10/20 08:55:24;;;;;;;4.18;1.20;;;;;;;15.11;86.57;99500.75;5018050;28;20046;-73
2022/10/20 08:57:49;;;;;;;5.05;1.35;;;;;;;14.98;87.25;99490.63;5019169;28;20394;-72
2022/10/20 09:00:24;;;;;;;4.68;1.10;;;;;;;14.99;87.82;99490.31;5018136;28;20049;-73
2022/10/20 09:02:50;;;;;;;2.28;1.25;;;;;;;14.97;87.73;99483.53;5023683;28;20037;-73
2022/10/20 09:05:22;;;;;;;1.95;1.05;;;;;;;15.03;87.81;99482.25;5019684;28;20056;-74
2022/10/20 09:07:48;;;;;;;1.75;1.10;;;;;;;15.12;87.50;99479.50;5029841;28;20021;-73
2022/10/20 09:10:23;;;;;;;3.50;1.33;;;;;;;15.21;87.61;99463.81;5009502;28;20359;-75
2022/10/20 09:12:49;;;;;;;3.72;1.02;;;;;;;15.44;87.04;99470.03;5010222;28;20526;-75
2022/10/20 09:15:17;;;;;;;3.20;0.88;;;;;;;15.65;85.98;99458.38;5022751;28;20125;-72
2022/10/20 09:17:50;;;;;;;3.20;1.00;;;;;;;15.84;84.94;99456.16;5013061;28;20030;-73
2022/10/20 09:20:38;;;;;;;2.53;1.07;;;;;;;16.04;84.27;99453.84;5009416;28;20034;-73
2022/10/20 09:23:13;;;;;;;1.83;1.00;;;;;;;16.02;83.61;99412.00;5014053;28;21102;-73
2022/10/20 09:25:41;;;;;;;1.77;0.85;;;;;;;16.22;82.91;99422.34;5015845;28;20027;-73
2022/10/20 09:28:25;;;;;;;0.70;0.40;;;;;;;16.43;82.60;99432.69;5003608;28;20037;-73
2022/10/20 09:30:52;;;;;;;1.92;0.70;;;;;;;16.65;82.35;99423.34;5026019;28;20101;-73
2022/10/20 09:33:32;;;;;;;1.27;0.63;;;;;;;16.89;81.61;99417.25;5035607;28;20395;-73
2022/10/20 09:36:04;;;;;;;0.93;0.43;;;;;;;17.07;81.04;99414.41;5039666;28;20033;-73
2022/10/20 09:38:33;;;;;;;2.78;0.50;;;;;;;17.21;80.23;99412.16;5025784;28;20020;-74
2022/10/20 09:41:15;;;;;;;1.33;0.60;;;;;;;17.40;79.75;99408.94;5029413;28;20407;-73
2022/10/20 09:44:13;;;;;;;1.15;0.60;;;;;;;17.57;78.74;99399.72;5047339;28;20090;-72
2022/10/20 09:46:45;;;;;;;2.25;1.00;;;;;;;17.82;78.45;99413.66;5049627;28;20034;-72
2022/10/20 09:49:31;;;;;;;1.63;0.47;;;;;;;18.08;77.62;99418.97;5027828;28;20025;-73
2022/10/20 09:51:59;;;;;;;5.75;1.65;;;;;;;18.15;75.68;99421.19;5037415;28;20028;-73
2022/10/20 09:54:25;;;;;;;3.97;0.95;;;;;;;18.16;75.18;99422.78;5039980;28;20033;-71
2022/10/20 09:56:52;;;;;;;3.65;1.13;;;;;;;18.11;75.47;99420.25;5020675;28;20040;-72
2022/10/20 09:59:36;;;;;;;9.52;1.83;;;;;;;18.03;74.58;99429.44;5054741;28;20041;-73
2022/10/20 10:02:15;;;;;;;3.42;1.30;;;;;;;17.83;74.80;99426.34;5044549;28;20071;-73
2022/10/20 10:04:44;;;;;;;3.63;1.35;;;;;;;17.62;74.18;99435.47;5037050;28;20365;-74
2022/10/20 10:07:25;;;;;;;3.80;1.23;;;;;;;17.26;76.01;99431.31;5037078;28;20021;-73
2022/10/20 10:10:05;;;;;;;3.13;1.20;;;;;;;17.34;76.13;99428.84;5044117;28;20038;-73
2022/10/20 10:12:31;;;;;;;2.58;0.88;;;;;;;17.74;75.74;99420.06;5039230;28;20036;-72
2022/10/20 10:15:03;;;;;;;1.30;0.60;;;;;;;18.28;74.28;99420.06;5040431;28;20044;-73
2022/10/20 10:17:40;;;;;;;2.45;0.70;;;;;;;18.87;72.59;99422.81;5035402;28;20029;-74
2022/10/20 10:20:09;;;;;;;2.38;0.88;;;;;;;19.42;70.92;99426.09;5040331;28;20029;-73
2022/10/20 10:22:34;;;;;;;0.50;0.50;;;;;;;19.90;69.55;99429.88;5027667;28;20034;-74
2022/10/20 10:25:01;;;;;;;1.15;0.40;;;;;;;20.40;67.87;99424.91;5019829;28;20037;-72
2022/10/20 10:27:34;;;;;;;1.10;0.63;;;;;;;20.69;66.77;99408.97;5018074;28;20029;-73
2022/10/20 10:30:18;;;;;;;2.70;0.77;;;;;;;21.01;65.91;99432.00;5051010;28;20480;-73
2022/10/20 10:32:46;;;;;;;2.40;0.70;;;;;;;21.40;65.31;99431.28;5038301;28;20034;-73
2022/10/20 10:35:30;;;;;;;1.17;0.50;;;;;;;22.05;63.44;99435.44;5037833;28;20063;-75
2022/10/20 10:37:59;;;;;;;2.28;0.80;;;;;;;22.18;61.39;99444.44;5035501;28;20025;-74
2022/10/20 10:40:36;;;;;;;9.80;1.88;;;;;;;21.75;60.19;99434.06;5046812;28;20049;-73
2022/10/20 10:43:29;;;;;;;1.85;0.90;;;;;;;21.23;61.89;99427.75;5033661;28;20036;-73
2022/10/20 10:46:15;;;;;;;6.05;1.35;;;;;;;20.95;62.82;99427.88;5027328;28;20095;-72
2022/10/20 10:48:47;;;;;;;3.40;1.00;;;;;;;20.67;63.14;99423.22;5036071;28;20025;-72
2022/10/20 10:51:27;;;;;;;4.03;1.20;;;;;;;20.77;62.10;99423.88;5036968;28;20068;-74
2022/10/20 10:54:11;;;;;;;2.83;0.70;;;;;;;20.87;61.38;99424.13;5034124;28;20051;-72
2022/10/20 10:56:49;;;;;;;5.53;1.20;;;;;;;20.85;60.62;99408.97;5041643;28;20143;-73
2022/10/20 10:59:21;;;;;;;5.82;1.00;;;;;;;21.38;60.09;99417.75;5028197;28;20113;-74
2022/10/20 11:02:24;;;;;;;3.35;0.80;;;;;;;21.89;58.34;99418.81;5027093;28;20112;-73
2022/10/20 11:05:04;;;;;;;4.97;1.00;;;;;;;21.79;56.81;99426.59;5039905;28;20408;-73
2022/10/20 11:07:55;;;;;;;2.33;1.02;;;;;;;21.69;57.14;99421.63;5036031;28;20028;-74
2022/10/20 11:11:00;;;;;;;5.60;1.40;;;;;;;21.23;57.42;99426.94;5036827;28;20056;-73
2022/10/20 11:13:45;;;;;;;7.35;1.15;;;;;;;20.58;58.04;99436.47;5044263;28;20138;-73
2022/10/20 11:16:29;;;;;;;2.63;0.75;;;;;;;20.38;60.09;99428.06;5034923;28;20025;-71
2022/10/20 11:19:31;;;;;;;4.68;1.10;;;;;;;20.30;60.17;99440.13;5034136;28;20026;-74
2022/10/20 11:22:02;;;;;;;3.05;1.15;;;;;;;20.13;60.86;99440.44;5031303;28;20117;-74
2022/10/20 11:24:27;;;;;;;4.28;1.55;;;;;;;20.09;61.25;99442.31;5032707;28;20044;-73
2022/10/20 11:27:06;;;;;;;3.45;1.00;;;;;;;19.77;61.76;99436.63;5037623;28;20041;-74
2022/10/20 11:29:39;;;;;;;2.72;0.90;;;;;;;19.59;62.87;99448.00;5033550;28;20050;-73
2022/10/20 11:32:21;;;;;;;9.20;1.70;;;;;;;19.19;63.43;99441.25;5034188;28;20088;-73
2022/10/20 11:35:01;;;;;;;2.33;1.00;;;;;;;18.76;64.26;99447.34;5031369;28;20033;-72
2022/10/20 11:37:30;;;;;;;3.72;1.23;;;;;;;18.77;65.44;99435.91;5030156;28;20770;-73
2022/10/20 11:40:08;;;;;;;5.18;1.40;;;;;;;18.83;64.96;99440.06;5029623;28;20025;-74
2022/10/20 11:42:42;;;;;;;5.75;0.90;;;;;;;18.83;65.41;99440.06;5035966;28;20026;-73
2022/10/20 11:45:28;;;;;;;5.90;0.88;;;;;;;18.91;65.35;99441.16;5023426;28;20037;-73
2022/10/20 11:48:06;;;;;;;4.80;0.80;;;;;;;19.18;64.34;99438.84;5035628;28;20037;-73
2022/10/20 11:50:33;;;;;;;5.85;1.30;;;;;;;19.42;62.77;99437.19;5030080;28;20025;-72
2022/10/20 11:53:17;;;;;;;7.35;1.20;;;;;;;19.95;61.57;99437.19;5037648;28;20048;-72
2022/10/20 11:56:05;;;;;;;4.50;1.02;;;;;;;20.28;60.99;99439.69;5033150;28;20029;-72